sensor_id;sensor_type;location;lat;lon;timestamp;P1;durP1;ratioP1;P2;durP2;ratioP2
66581;SDS011;53438;48.898;2.308;2023-05-14T03:02:26;34.10;;;20.70;;
66581;SDS011;53438;48.898;2.308;2023-05-14T03:04:52;38.60;;;24.07;;
66581;SDS011;53438;48.898;2.308;2023-05-14T03:07:17;38.53;;;21.73;;
66581;SDS011;53438;48.898;2.308;2023-05-14T03:09:42;34.33;;;20.65;;
66581;SDS011;53438;48.898;2.308;2023-05-14T03:12:08;36.47;;;21.07;;
66581;SDS011;53438;48.898;2.308;2023-05-14T03:14:33;36.43;;;21.67;;
66581;SDS011;53438;48.898;2.308;2023-05-14T03:16:58;35.27;;;20.83;;
66581;SDS011;53438;48.898;2.308;2023-05-14T03:19:24;43.53;;;24.50;;
66581;SDS011;53438;48.898;2.308;2023-05-14T03:21:49;40.92;;;22.83;;
66581;SDS011;53438;48.898;2.308;2023-05-14T03:24:15;41.97;;;24.10;;
66581;SDS011;53438;48.898;2.308;2023-05-14T03:26:40;45.43;;;25.40;;
66581;SDS011;53438;48.898;2.308;2023-05-14T03:29:06;46.20;;;23.93;;
66581;SDS011;53438;48.898;2.308;2023-05-14T03:31:31;51.80;;;25.87;;
66581;SDS011;53438;48.898;2.308;2023-05-14T03:33:56;46.93;;;24.33;;
66581;SDS011;53438;48.898;2.308;2023-05-14T03:36:22;41.33;;;24.35;;
66581;SDS011;53438;48.898;2.308;2023-05-14T03:38:47;48.90;;;25.90;;
66581;SDS011;53438;48.898;2.308;2023-05-14T03:41:12;48.10;;;24.53;;
66581;SDS011;53438;48.898;2.308;2023-05-14T03:43:38;45.80;;;23.43;;
66581;SDS011;53438;48.898;2.308;2023-05-14T03:46:03;46.67;;;26.03;;
66581;SDS011;53438;48.898;2.308;2023-05-14T03:48:28;45.27;;;23.53;;
66581;SDS011;53438;48.898;2.308;2023-05-14T03:50:54;43.33;;;24.87;;
66581;SDS011;53438;48.898;2.308;2023-05-14T03:53:19;47.93;;;26.70;;
66581;SDS011;53438;48.898;2.308;2023-05-14T03:55:44;50.10;;;25.85;;
66581;SDS011;53438;48.898;2.308;2023-05-14T03:58:10;41.85;;;22.90;;
66581;SDS011;53438;48.898;2.308;2023-05-14T04:00:39;49.80;;;24.50;;
66581;SDS011;53438;48.898;2.308;2023-05-14T04:03:07;44.67;;;23.60;;
66581;SDS011;53438;48.898;2.308;2023-05-14T04:05:33;51.03;;;24.00;;
66581;SDS011;53438;48.898;2.308;2023-05-14T04:07:59;46.97;;;24.90;;
66581;SDS011;53438;48.898;2.308;2023-05-14T04:10:24;47.00;;;25.67;;
66581;SDS011;53438;48.898;2.308;2023-05-14T04:12:50;49.30;;;24.98;;
66581;SDS011;53438;48.898;2.308;2023-05-14T04:15:15;49.33;;;24.47;;
66581;SDS011;53438;48.898;2.308;2023-05-14T04:17:41;43.80;;;24.23;;
66581;SDS011;53438;48.898;2.308;2023-05-14T04:20:06;46.47;;;24.90;;
66581;SDS011;53438;48.898;2.308;2023-05-14T04:22:32;45.42;;;23.48;;
66581;SDS011;53438;48.898;2.308;2023-05-14T04:24:57;47.33;;;23.13;;
66581;SDS011;53438;48.898;2.308;2023-05-14T04:27:22;39.83;;;22.23;;
66581;SDS011;53438;48.898;2.308;2023-05-14T04:29:48;45.20;;;20.97;;
66581;SDS011;53438;48.898;2.308;2023-05-14T04:32:14;40.72;;;21.58;;
66581;SDS011;53438;48.898;2.308;2023-05-14T04:34:39;39.83;;;21.40;;
66581;SDS011;53438;48.898;2.308;2023-05-14T04:37:05;36.90;;;22.70;;
66581;SDS011;53438;48.898;2.308;2023-05-14T04:39:31;37.92;;;21.20;;
66581;SDS011;53438;48.898;2.308;2023-05-14T04:41:56;42.90;;;22.27;;
66581;SDS011;53438;48.898;2.308;2023-05-14T04:44:21;43.17;;;21.67;;
66581;SDS011;53438;48.898;2.308;2023-05-14T04:46:47;39.00;;;21.40;;
66581;SDS011;53438;48.898;2.308;2023-05-14T04:49:12;43.93;;;22.83;;
66581;SDS011;53438;48.898;2.308;2023-05-14T04:51:37;43.92;;;22.67;;
66581;SDS011;53438;48.898;2.308;2023-05-14T04:54:03;44.47;;;22.80;;
66581;SDS011;53438;48.898;2.308;2023-05-14T04:56:28;47.70;;;23.57;;
66581;SDS011;53438;48.898;2.308;2023-05-14T04:58:53;44.00;;;23.23;;
66581;SDS011;53438;48.898;2.308;2023-05-14T05:01:19;41.40;;;20.93;;
66581;SDS011;53438;48.898;2.308;2023-05-14T05:03:45;39.88;;;22.58;;
66581;SDS011;53438;48.898;2.308;2023-05-14T05:06:10;41.37;;;22.43;;
66581;SDS011;53438;48.898;2.308;2023-05-14T05:08:35;35.33;;;20.23;;
66581;SDS011;53438;48.898;2.308;2023-05-14T05:11:01;45.20;;;23.60;;
66581;SDS011;53438;48.898;2.308;2023-05-14T05:13:26;45.23;;;22.53;;
66581;SDS011;53438;48.898;2.308;2023-05-14T05:15:52;45.97;;;23.40;;
66581;SDS011;53438;48.898;2.308;2023-05-14T05:18:17;49.23;;;22.70;;
66581;SDS011;53438;48.898;2.308;2023-05-14T05:20:43;42.17;;;21.87;;
66581;SDS011;53438;48.898;2.308;2023-05-14T05:23:08;41.23;;;21.67;;
66581;SDS011;53438;48.898;2.308;2023-05-14T05:25:33;46.30;;;23.60;;
66581;SDS011;53438;48.898;2.308;2023-05-14T05:27:59;50.10;;;24.73;;
66581;SDS011;53438;48.898;2.308;2023-05-14T05:30:24;57.90;;;29.55;;
66581;SDS011;53438;48.898;2.308;2023-05-14T05:32:51;61.85;;;30.75;;
66581;SDS011;53438;48.898;2.308;2023-05-14T05:35:16;70.33;;;27.53;;
66581;SDS011;53438;48.898;2.308;2023-05-14T05:37:41;64.17;;;29.17;;
66581;SDS011;53438;48.898;2.308;2023-05-14T05:40:09;62.60;;;28.38;;
66581;SDS011;53438;48.898;2.308;2023-05-14T05:42:34;56.40;;;27.53;;
66581;SDS011;53438;48.898;2.308;2023-05-14T05:45:01;57.22;;;28.60;;
66581;SDS011;53438;48.898;2.308;2023-05-14T05:47:26;58.77;;;27.40;;
66581;SDS011;53438;48.898;2.308;2023-05-14T05:49:52;56.30;;;26.10;;
66581;SDS011;53438;48.898;2.308;2023-05-14T05:52:18;58.97;;;28.98;;
66581;SDS011;53438;48.898;2.308;2023-05-14T05:54:43;58.50;;;26.70;;
66581;SDS011;53438;48.898;2.308;2023-05-14T05:57:08;54.77;;;26.37;;
66581;SDS011;53438;48.898;2.308;2023-05-14T05:59:34;55.03;;;26.17;;
66581;SDS011;53438;48.898;2.308;2023-05-14T06:02:00;54.60;;;26.35;;
66581;SDS011;53438;48.898;2.308;2023-05-14T06:04:26;46.05;;;23.20;;
66581;SDS011;53438;48.898;2.308;2023-05-14T06:06:52;48.33;;;24.37;;
66581;SDS011;53438;48.898;2.308;2023-05-14T06:09:17;43.20;;;23.17;;
66581;SDS011;53438;48.898;2.308;2023-05-14T06:11:43;44.80;;;21.67;;
66581;SDS011;53438;48.898;2.308;2023-05-14T06:14:08;47.47;;;23.63;;
66581;SDS011;53438;48.898;2.308;2023-05-14T06:16:33;46.13;;;22.77;;
66581;SDS011;53438;48.898;2.308;2023-05-14T06:18:59;44.27;;;22.23;;
66581;SDS011;53438;48.898;2.308;2023-05-14T06:21:24;43.83;;;22.37;;
66581;SDS011;53438;48.898;2.308;2023-05-14T06:23:50;47.63;;;23.87;;
66581;SDS011;53438;48.898;2.308;2023-05-14T06:26:15;47.90;;;24.70;;
66581;SDS011;53438;48.898;2.308;2023-05-14T06:28:40;48.23;;;23.93;;
66581;SDS011;53438;48.898;2.308;2023-05-14T06:31:06;44.17;;;23.00;;
66581;SDS011;53438;48.898;2.308;2023-05-14T06:33:31;41.72;;;22.90;;
66581;SDS011;53438;48.898;2.308;2023-05-14T06:35:57;42.40;;;21.47;;
66581;SDS011;53438;48.898;2.308;2023-05-14T06:38:23;45.03;;;22.43;;
66581;SDS011;53438;48.898;2.308;2023-05-14T06:40:49;44.33;;;22.15;;
66581;SDS011;53438;48.898;2.308;2023-05-14T06:43:17;47.80;;;23.20;;
66581;SDS011;53438;48.898;2.308;2023-05-14T06:45:43;48.73;;;24.30;;
66581;SDS011;53438;48.898;2.308;2023-05-14T06:48:12;47.30;;;23.50;;
66581;SDS011;53438;48.898;2.308;2023-05-14T06:50:38;51.97;;;23.00;;
66581;SDS011;53438;48.898;2.308;2023-05-14T06:53:04;48.13;;;23.20;;
66581;SDS011;53438;48.898;2.308;2023-05-14T06:55:29;43.10;;;21.33;;
66581;SDS011;53438;48.898;2.308;2023-05-14T06:57:54;44.63;;;21.33;;
66581;SDS011;53438;48.898;2.308;2023-05-14T07:00:20;35.53;;;19.02;;
66581;SDS011;53438;48.898;2.308;2023-05-14T07:02:46;39.83;;;21.53;;
66581;SDS011;53438;48.898;2.308;2023-05-14T07:05:11;45.50;;;22.83;;
66581;SDS011;53438;48.898;2.308;2023-05-14T07:07:37;47.30;;;24.45;;
66581;SDS011;53438;48.898;2.308;2023-05-14T07:10:02;60.90;;;28.77;;
66581;SDS011;53438;48.898;2.308;2023-05-14T07:12:28;61.05;;;28.80;;
66581;SDS011;53438;48.898;2.308;2023-05-14T07:14:53;58.37;;;26.60;;
66581;SDS011;53438;48.898;2.308;2023-05-14T07:17:20;64.80;;;28.92;;
66581;SDS011;53438;48.898;2.308;2023-05-14T07:19:46;63.43;;;29.33;;
66581;SDS011;53438;48.898;2.308;2023-05-14T07:22:11;65.33;;;28.07;;
66581;SDS011;53438;48.898;2.308;2023-05-14T07:24:37;58.53;;;28.70;;
66581;SDS011;53438;48.898;2.308;2023-05-14T07:27:02;56.50;;;25.30;;
66581;SDS011;53438;48.898;2.308;2023-05-14T07:29:28;56.00;;;26.60;;
66581;SDS011;53438;48.898;2.308;2023-05-14T07:31:54;56.43;;;25.90;;
66581;SDS011;53438;48.898;2.308;2023-05-14T07:34:19;56.47;;;28.42;;
66581;SDS011;53438;48.898;2.308;2023-05-14T07:36:45;59.57;;;27.37;;
66581;SDS011;53438;48.898;2.308;2023-05-14T07:39:10;67.80;;;27.10;;
66581;SDS011;53438;48.898;2.308;2023-05-14T07:41:36;64.28;;;27.30;;
66581;SDS011;53438;48.898;2.308;2023-05-14T07:44:01;63.23;;;27.43;;
66581;SDS011;53438;48.898;2.308;2023-05-14T07:46:27;65.87;;;27.83;;
66581;SDS011;53438;48.898;2.308;2023-05-14T07:48:52;64.67;;;27.40;;
66581;SDS011;53438;48.898;2.308;2023-05-14T07:51:17;66.17;;;26.97;;
66581;SDS011;53438;48.898;2.308;2023-05-14T07:53:43;63.40;;;26.53;;
66581;SDS011;53438;48.898;2.308;2023-05-14T07:56:08;68.53;;;28.10;;
66581;SDS011;53438;48.898;2.308;2023-05-14T07:58:33;57.50;;;26.88;;
66581;SDS011;53438;48.898;2.308;2023-05-14T08:00:59;58.60;;;25.38;;
66581;SDS011;53438;48.898;2.308;2023-05-14T08:03:26;54.20;;;24.92;;
66581;SDS011;53438;48.898;2.308;2023-05-14T08:05:51;56.57;;;26.60;;
66581;SDS011;53438;48.898;2.308;2023-05-14T08:08:17;61.42;;;27.75;;
66581;SDS011;53438;48.898;2.308;2023-05-14T08:10:42;62.35;;;26.63;;
66581;SDS011;53438;48.898;2.308;2023-05-14T08:13:07;57.50;;;26.40;;
66581;SDS011;53438;48.898;2.308;2023-05-14T08:15:33;58.83;;;25.80;;
66581;SDS011;53438;48.898;2.308;2023-05-14T08:17:58;57.60;;;25.37;;
66581;SDS011;53438;48.898;2.308;2023-05-14T08:20:27;59.88;;;25.52;;
66581;SDS011;53438;48.898;2.308;2023-05-14T08:22:53;57.92;;;27.45;;
66581;SDS011;53438;48.898;2.308;2023-05-14T08:25:19;63.10;;;27.10;;
66581;SDS011;53438;48.898;2.308;2023-05-14T08:27:45;58.83;;;25.40;;
66581;SDS011;53438;48.898;2.308;2023-05-14T08:30:10;53.00;;;22.90;;
66581;SDS011;53438;48.898;2.308;2023-05-14T08:32:36;53.40;;;23.27;;
66581;SDS011;53438;48.898;2.308;2023-05-14T08:35:02;52.45;;;22.27;;
66581;SDS011;53438;48.898;2.308;2023-05-14T08:37:28;61.97;;;25.17;;
66581;SDS011;53438;48.898;2.308;2023-05-14T08:39:53;50.43;;;23.30;;
66581;SDS011;53438;48.898;2.308;2023-05-14T08:42:20;52.15;;;23.80;;
66581;SDS011;53438;48.898;2.308;2023-05-14T08:44:48;48.40;;;22.73;;
66581;SDS011;53438;48.898;2.308;2023-05-14T08:47:17;47.53;;;23.80;;
66581;SDS011;53438;48.898;2.308;2023-05-14T08:49:46;46.13;;;24.38;;
66581;SDS011;53438;48.898;2.308;2023-05-14T08:52:13;51.17;;;23.02;;
66581;SDS011;53438;48.898;2.308;2023-05-14T08:54:40;46.95;;;22.40;;
66581;SDS011;53438;48.898;2.308;2023-05-14T08:57:07;42.20;;;20.23;;
66581;SDS011;53438;48.898;2.308;2023-05-14T08:59:34;44.67;;;21.50;;
66581;SDS011;53438;48.898;2.308;2023-05-14T09:02:01;45.73;;;21.87;;
66581;SDS011;53438;48.898;2.308;2023-05-14T09:04:28;44.00;;;21.35;;
66581;SDS011;53438;48.898;2.308;2023-05-14T09:06:55;43.13;;;20.53;;
66581;SDS011;53438;48.898;2.308;2023-05-14T09:09:20;45.63;;;22.05;;
66581;SDS011;53438;48.898;2.308;2023-05-14T09:11:47;49.73;;;24.03;;
66581;SDS011;53438;48.898;2.308;2023-05-14T09:14:13;48.85;;;23.42;;
66581;SDS011;53438;48.898;2.308;2023-05-14T09:16:39;46.60;;;23.50;;
66581;SDS011;53438;48.898;2.308;2023-05-14T09:19:06;45.78;;;21.40;;
66581;SDS011;53438;48.898;2.308;2023-05-14T09:21:32;43.08;;;21.35;;
66581;SDS011;53438;48.898;2.308;2023-05-14T09:23:58;44.78;;;22.40;;
66581;SDS011;53438;48.898;2.308;2023-05-14T09:26:25;50.47;;;23.00;;
66581;SDS011;53438;48.898;2.308;2023-05-14T09:28:52;50.53;;;22.97;;
66581;SDS011;53438;48.898;2.308;2023-05-14T09:31:19;48.97;;;23.35;;
66581;SDS011;53438;48.898;2.308;2023-05-14T09:33:48;49.17;;;20.90;;
66581;SDS011;53438;48.898;2.308;2023-05-14T09:36:17;54.05;;;22.90;;
66581;SDS011;53438;48.898;2.308;2023-05-14T09:38:43;48.97;;;21.92;;
66581;SDS011;53438;48.898;2.308;2023-05-14T09:41:09;40.88;;;21.33;;
66581;SDS011;53438;48.898;2.308;2023-05-14T09:43:34;45.15;;;21.55;;
66581;SDS011;53438;48.898;2.308;2023-05-14T09:46:00;43.37;;;20.67;;
66581;SDS011;53438;48.898;2.308;2023-05-14T09:48:25;39.07;;;19.53;;
66581;SDS011;53438;48.898;2.308;2023-05-14T09:50:50;41.27;;;20.00;;
66581;SDS011;53438;48.898;2.308;2023-05-14T09:53:16;40.47;;;19.55;;
66581;SDS011;53438;48.898;2.308;2023-05-14T09:55:42;38.55;;;19.33;;
66581;SDS011;53438;48.898;2.308;2023-05-14T09:58:08;39.58;;;18.90;;
66581;SDS011;53438;48.898;2.308;2023-05-14T10:00:33;40.50;;;19.90;;
66581;SDS011;53438;48.898;2.308;2023-05-14T10:03:03;38.08;;;18.67;;
66581;SDS011;53438;48.898;2.308;2023-05-14T10:05:32;40.28;;;20.60;;
66581;SDS011;53438;48.898;2.308;2023-05-14T10:07:59;53.93;;;25.00;;
66581;SDS011;53438;48.898;2.308;2023-05-14T10:10:29;49.55;;;22.65;;
66581;SDS011;53438;48.898;2.308;2023-05-14T10:12:57;46.40;;;21.77;;
66581;SDS011;53438;48.898;2.308;2023-05-14T10:15:36;47.65;;;20.33;;
66581;SDS011;53438;48.898;2.308;2023-05-14T10:18:08;42.95;;;21.10;;
66581;SDS011;53438;48.898;2.308;2023-05-14T10:20:35;39.80;;;20.67;;
66581;SDS011;53438;48.898;2.308;2023-05-14T10:23:02;42.30;;;19.75;;
66581;SDS011;53438;48.898;2.308;2023-05-14T10:25:28;43.23;;;21.33;;
66581;SDS011;53438;48.898;2.308;2023-05-14T10:27:54;40.55;;;20.77;;
66581;SDS011;53438;48.898;2.308;2023-05-14T10:30:20;41.03;;;20.85;;
66581;SDS011;53438;48.898;2.308;2023-05-14T10:32:46;39.20;;;21.03;;
66581;SDS011;53438;48.898;2.308;2023-05-14T10:35:16;40.90;;;20.90;;
66581;SDS011;53438;48.898;2.308;2023-05-14T10:37:44;43.30;;;21.73;;
66581;SDS011;53438;48.898;2.308;2023-05-14T10:40:11;44.90;;;23.15;;
66581;SDS011;53438;48.898;2.308;2023-05-14T10:42:37;38.17;;;21.70;;
66581;SDS011;53438;48.898;2.308;2023-05-14T10:45:14;47.70;;;25.33;;
66581;SDS011;53438;48.898;2.308;2023-05-14T10:47:46;39.43;;;20.00;;
66581;SDS011;53438;48.898;2.308;2023-05-14T10:50:13;39.38;;;21.13;;
66581;SDS011;53438;48.898;2.308;2023-05-14T10:52:43;33.05;;;19.70;;
66581;SDS011;53438;48.898;2.308;2023-05-14T10:55:12;39.20;;;20.20;;
66581;SDS011;53438;48.898;2.308;2023-05-14T10:57:41;40.42;;;20.67;;
66581;SDS011;53438;48.898;2.308;2023-05-14T11:00:08;36.27;;;19.43;;
66581;SDS011;53438;48.898;2.308;2023-05-14T11:02:36;37.88;;;19.48;;
66581;SDS011;53438;48.898;2.308;2023-05-14T11:07:33;37.70;;;19.70;;
66581;SDS011;53438;48.898;2.308;2023-05-14T11:10:02;38.47;;;20.08;;
66581;SDS011;53438;48.898;2.308;2023-05-14T11:12:29;31.30;;;18.13;;
66581;SDS011;53438;48.898;2.308;2023-05-14T11:14:55;32.42;;;18.45;;
66581;SDS011;53438;48.898;2.308;2023-05-14T11:17:23;32.67;;;18.10;;
66581;SDS011;53438;48.898;2.308;2023-05-14T11:19:50;36.70;;;20.50;;
66581;SDS011;53438;48.898;2.308;2023-05-14T11:22:15;38.50;;;22.63;;
66581;SDS011;53438;48.898;2.308;2023-05-14T11:24:40;33.27;;;18.90;;
66581;SDS011;53438;48.898;2.308;2023-05-14T11:27:07;36.17;;;21.27;;
66581;SDS011;53438;48.898;2.308;2023-05-14T11:29:36;39.08;;;21.08;;
66581;SDS011;53438;48.898;2.308;2023-05-14T11:32:03;36.28;;;20.75;;
66581;SDS011;53438;48.898;2.308;2023-05-14T11:34:30;35.10;;;18.98;;
66581;SDS011;53438;48.898;2.308;2023-05-14T11:36:55;29.70;;;17.97;;
66581;SDS011;53438;48.898;2.308;2023-05-14T11:39:21;35.77;;;19.30;;
66581;SDS011;53438;48.898;2.308;2023-05-14T11:41:46;29.80;;;18.20;;
66581;SDS011;53438;48.898;2.308;2023-05-14T11:44:11;34.97;;;19.27;;
66581;SDS011;53438;48.898;2.308;2023-05-14T11:46:37;29.77;;;17.65;;
66581;SDS011;53438;48.898;2.308;2023-05-14T11:49:03;30.33;;;17.63;;
66581;SDS011;53438;48.898;2.308;2023-05-14T11:51:29;28.52;;;16.85;;
66581;SDS011;53438;48.898;2.308;2023-05-14T11:53:54;30.40;;;19.13;;
66581;SDS011;53438;48.898;2.308;2023-05-14T11:56:20;28.37;;;17.73;;
66581;SDS011;53438;48.898;2.308;2023-05-14T11:58:47;31.05;;;18.73;;
66581;SDS011;53438;48.898;2.308;2023-05-14T12:01:12;29.65;;;17.55;;
66581;SDS011;53438;48.898;2.308;2023-05-14T12:03:38;40.00;;;25.33;;
66581;SDS011;53438;48.898;2.308;2023-05-14T12:06:05;36.00;;;21.43;;
66581;SDS011;53438;48.898;2.308;2023-05-14T12:08:32;29.80;;;19.73;;
66581;SDS011;53438;48.898;2.308;2023-05-14T12:10:58;33.57;;;18.97;;
66581;SDS011;53438;48.898;2.308;2023-05-14T12:13:31;30.75;;;17.88;;
66581;SDS011;53438;48.898;2.308;2023-05-14T12:15:57;28.45;;;17.65;;
66581;SDS011;53438;48.898;2.308;2023-05-14T12:18:25;27.45;;;18.45;;
66581;SDS011;53438;48.898;2.308;2023-05-14T12:20:52;28.63;;;17.63;;
66581;SDS011;53438;48.898;2.308;2023-05-14T12:23:28;34.00;;;21.13;;
66581;SDS011;53438;48.898;2.308;2023-05-14T12:25:55;27.80;;;17.70;;
66581;SDS011;53438;48.898;2.308;2023-05-14T12:28:25;27.45;;;17.27;;
66581;SDS011;53438;48.898;2.308;2023-05-14T12:30:55;27.67;;;18.17;;
66581;SDS011;53438;48.898;2.308;2023-05-14T12:33:21;25.92;;;17.35;;
66581;SDS011;53438;48.898;2.308;2023-05-14T12:35:48;28.48;;;17.75;;
66581;SDS011;53438;48.898;2.308;2023-05-14T12:38:13;26.48;;;16.85;;
66581;SDS011;53438;48.898;2.308;2023-05-14T12:40:39;26.93;;;16.27;;
66581;SDS011;53438;48.898;2.308;2023-05-14T12:43:04;25.63;;;17.63;;
66581;SDS011;53438;48.898;2.308;2023-05-14T12:45:30;25.17;;;16.65;;
66581;SDS011;53438;48.898;2.308;2023-05-14T12:47:55;27.27;;;16.70;;
66581;SDS011;53438;48.898;2.308;2023-05-14T12:50:21;27.53;;;16.83;;
66581;SDS011;53438;48.898;2.308;2023-05-14T12:52:46;24.17;;;16.50;;
66581;SDS011;53438;48.898;2.308;2023-05-14T12:55:13;26.63;;;15.90;;
66581;SDS011;53438;48.898;2.308;2023-05-14T12:57:39;27.65;;;16.83;;
66581;SDS011;53438;48.898;2.308;2023-05-14T13:00:05;25.80;;;17.27;;
66581;SDS011;53438;48.898;2.308;2023-05-14T13:02:31;25.42;;;15.80;;
66581;SDS011;53438;48.898;2.308;2023-05-14T13:04:57;21.60;;;15.37;;
66581;SDS011;53438;48.898;2.308;2023-05-14T13:07:22;25.07;;;15.60;;
66581;SDS011;53438;48.898;2.308;2023-05-14T13:09:48;25.98;;;15.70;;
66581;SDS011;53438;48.898;2.308;2023-05-14T13:12:13;23.27;;;15.40;;
66581;SDS011;53438;48.898;2.308;2023-05-14T13:14:39;21.50;;;14.97;;
66581;SDS011;53438;48.898;2.308;2023-05-14T13:17:04;21.17;;;15.03;;
66581;SDS011;53438;48.898;2.308;2023-05-14T13:19:31;25.05;;;16.15;;
66581;SDS011;53438;48.898;2.308;2023-05-14T13:21:57;22.47;;;14.63;;
66581;SDS011;53438;48.898;2.308;2023-05-14T13:24:22;24.57;;;15.50;;
66581;SDS011;53438;48.898;2.308;2023-05-14T13:26:48;18.50;;;14.18;;
66581;SDS011;53438;48.898;2.308;2023-05-14T13:29:14;24.43;;;14.90;;
66581;SDS011;53438;48.898;2.308;2023-05-14T13:31:39;20.23;;;13.97;;
66581;SDS011;53438;48.898;2.308;2023-05-14T13:34:05;21.25;;;15.23;;
66581;SDS011;53438;48.898;2.308;2023-05-14T13:36:30;21.97;;;15.87;;
66581;SDS011;53438;48.898;2.308;2023-05-14T13:38:57;20.70;;;13.43;;
66581;SDS011;53438;48.898;2.308;2023-05-14T13:41:22;20.63;;;15.10;;
66581;SDS011;53438;48.898;2.308;2023-05-14T13:43:50;23.60;;;14.80;;
66581;SDS011;53438;48.898;2.308;2023-05-14T13:46:15;19.23;;;13.27;;
66581;SDS011;53438;48.898;2.308;2023-05-14T13:48:40;19.40;;;13.20;;
66581;SDS011;53438;48.898;2.308;2023-05-14T13:51:06;18.43;;;12.33;;
66581;SDS011;53438;48.898;2.308;2023-05-14T13:53:31;18.03;;;12.60;;
66581;SDS011;53438;48.898;2.308;2023-05-14T13:55:58;18.30;;;12.52;;
66581;SDS011;53438;48.898;2.308;2023-05-14T13:58:25;17.65;;;12.90;;
66581;SDS011;53438;48.898;2.308;2023-05-14T14:00:51;17.27;;;11.90;;
66581;SDS011;53438;48.898;2.308;2023-05-14T14:03:18;19.25;;;12.98;;
66581;SDS011;53438;48.898;2.308;2023-05-14T14:05:44;18.57;;;11.03;;
66581;SDS011;53438;48.898;2.308;2023-05-14T14:08:09;18.43;;;11.80;;
66581;SDS011;53438;48.898;2.308;2023-05-14T14:10:34;16.67;;;11.10;;
66581;SDS011;53438;48.898;2.308;2023-05-14T14:13:00;13.90;;;11.10;;
66581;SDS011;53438;48.898;2.308;2023-05-14T14:15:25;18.63;;;11.67;;
66581;SDS011;53438;48.898;2.308;2023-05-14T14:17:51;14.23;;;10.93;;
66581;SDS011;53438;48.898;2.308;2023-05-14T14:20:16;17.03;;;10.90;;
66581;SDS011;53438;48.898;2.308;2023-05-14T14:22:42;21.42;;;11.93;;
66581;SDS011;53438;48.898;2.308;2023-05-14T14:25:08;17.27;;;10.43;;
66581;SDS011;53438;48.898;2.308;2023-05-14T14:27:36;16.02;;;10.43;;
66581;SDS011;53438;48.898;2.308;2023-05-14T14:30:08;14.65;;;10.25;;
66581;SDS011;53438;48.898;2.308;2023-05-14T14:32:44;14.90;;;9.77;;
66581;SDS011;53438;48.898;2.308;2023-05-14T14:35:11;13.93;;;10.32;;
66581;SDS011;53438;48.898;2.308;2023-05-14T14:37:37;12.80;;;8.60;;
66581;SDS011;53438;48.898;2.308;2023-05-14T14:40:03;17.13;;;9.85;;
66581;SDS011;53438;48.898;2.308;2023-05-14T14:42:31;14.63;;;8.57;;
66581;SDS011;53438;48.898;2.308;2023-05-14T14:44:57;12.32;;;8.32;;
66581;SDS011;53438;48.898;2.308;2023-05-14T14:47:22;15.53;;;9.87;;
66581;SDS011;53438;48.898;2.308;2023-05-14T14:49:48;14.37;;;8.77;;
66581;SDS011;53438;48.898;2.308;2023-05-14T14:52:13;12.18;;;9.45;;
66581;SDS011;53438;48.898;2.308;2023-05-14T14:54:38;9.82;;;7.20;;
66581;SDS011;53438;48.898;2.308;2023-05-14T14:57:04;12.63;;;7.10;;
66581;SDS011;53438;48.898;2.308;2023-05-14T14:59:29;12.40;;;7.73;;
66581;SDS011;53438;48.898;2.308;2023-05-14T15:01:55;11.97;;;7.73;;
66581;SDS011;53438;48.898;2.308;2023-05-14T15:04:20;10.30;;;7.18;;
66581;SDS011;53438;48.898;2.308;2023-05-14T15:06:45;12.27;;;6.90;;
66581;SDS011;53438;48.898;2.308;2023-05-14T15:09:11;11.17;;;6.90;;
66581;SDS011;53438;48.898;2.308;2023-05-14T15:11:36;10.57;;;7.13;;
66581;SDS011;53438;48.898;2.308;2023-05-14T15:14:01;11.77;;;7.73;;
66581;SDS011;53438;48.898;2.308;2023-05-14T15:16:27;12.37;;;6.80;;
66581;SDS011;53438;48.898;2.308;2023-05-14T15:18:52;12.37;;;6.87;;
66581;SDS011;53438;48.898;2.308;2023-05-14T15:21:18;11.05;;;6.28;;
66581;SDS011;53438;48.898;2.308;2023-05-14T15:23:43;7.97;;;6.47;;
66581;SDS011;53438;48.898;2.308;2023-05-14T15:26:08;10.97;;;7.30;;
66581;SDS011;53438;48.898;2.308;2023-05-14T15:28:34;8.00;;;5.80;;
66581;SDS011;53438;48.898;2.308;2023-05-14T15:30:59;7.23;;;6.33;;
66581;SDS011;53438;48.898;2.308;2023-05-14T15:33:26;8.63;;;5.50;;
66581;SDS011;53438;48.898;2.308;2023-05-14T15:35:51;11.37;;;6.10;;
66581;SDS011;53438;48.898;2.308;2023-05-14T15:38:17;8.80;;;6.43;;
66581;SDS011;53438;48.898;2.308;2023-05-14T15:40:42;9.45;;;6.50;;
66581;SDS011;53438;48.898;2.308;2023-05-14T15:43:07;7.90;;;5.57;;
66581;SDS011;53438;48.898;2.308;2023-05-14T15:45:33;8.87;;;5.50;;
66581;SDS011;53438;48.898;2.308;2023-05-14T15:47:58;8.90;;;6.10;;
66581;SDS011;53438;48.898;2.308;2023-05-14T15:50:23;9.07;;;5.50;;
66581;SDS011;53438;48.898;2.308;2023-05-14T15:52:51;7.78;;;4.63;;
66581;SDS011;53438;48.898;2.308;2023-05-14T15:55:16;8.37;;;5.13;;
66581;SDS011;53438;48.898;2.308;2023-05-14T15:57:42;9.30;;;6.27;;
66581;SDS011;53438;48.898;2.308;2023-05-14T16:00:08;6.63;;;5.75;;
66581;SDS011;53438;48.898;2.308;2023-05-14T16:02:35;8.05;;;5.90;;
66581;SDS011;53438;48.898;2.308;2023-05-14T16:05:01;7.93;;;5.60;;
66581;SDS011;53438;48.898;2.308;2023-05-14T16:07:26;6.83;;;5.23;;
66581;SDS011;53438;48.898;2.308;2023-05-14T16:09:52;7.23;;;5.73;;
66581;SDS011;53438;48.898;2.308;2023-05-14T16:12:17;13.32;;;5.82;;
66581;SDS011;53438;48.898;2.308;2023-05-14T16:14:43;5.80;;;4.60;;
66581;SDS011;53438;48.898;2.308;2023-05-14T16:17:09;6.63;;;5.10;;
66581;SDS011;53438;48.898;2.308;2023-05-14T16:19:37;8.18;;;5.30;;
66581;SDS011;53438;48.898;2.308;2023-05-14T16:22:02;7.07;;;5.22;;
66581;SDS011;53438;48.898;2.308;2023-05-14T16:24:28;6.27;;;4.90;;
66581;SDS011;53438;48.898;2.308;2023-05-14T16:26:53;7.82;;;4.65;;
66581;SDS011;53438;48.898;2.308;2023-05-14T16:29:18;6.90;;;5.05;;
66581;SDS011;53438;48.898;2.308;2023-05-14T16:31:44;6.60;;;4.77;;
66581;SDS011;53438;48.898;2.308;2023-05-14T16:34:10;9.20;;;5.03;;
66581;SDS011;53438;48.898;2.308;2023-05-14T16:36:35;6.93;;;5.03;;
66581;SDS011;53438;48.898;2.308;2023-05-14T16:39:01;10.88;;;4.82;;
66581;SDS011;53438;48.898;2.308;2023-05-14T16:41:26;7.87;;;5.50;;
66581;SDS011;53438;48.898;2.308;2023-05-14T16:43:52;9.18;;;5.32;;
66581;SDS011;53438;48.898;2.308;2023-05-14T16:46:17;9.73;;;5.13;;
66581;SDS011;53438;48.898;2.308;2023-05-14T16:48:43;9.17;;;5.47;;
66581;SDS011;53438;48.898;2.308;2023-05-14T16:51:09;9.17;;;5.27;;
66581;SDS011;53438;48.898;2.308;2023-05-14T16:53:36;9.75;;;4.78;;
66581;SDS011;53438;48.898;2.308;2023-05-14T16:56:02;9.23;;;5.17;;
66581;SDS011;53438;48.898;2.308;2023-05-14T16:58:27;6.07;;;5.13;;
66581;SDS011;53438;48.898;2.308;2023-05-14T17:00:53;6.60;;;4.90;;
66581;SDS011;53438;48.898;2.308;2023-05-14T17:03:18;8.97;;;4.80;;
66581;SDS011;53438;48.898;2.308;2023-05-14T17:05:44;8.07;;;4.43;;
66581;SDS011;53438;48.898;2.308;2023-05-14T17:08:09;9.70;;;5.13;;
66581;SDS011;53438;48.898;2.308;2023-05-14T17:10:34;6.80;;;4.33;;
66581;SDS011;53438;48.898;2.308;2023-05-14T17:13:00;8.10;;;4.77;;
66581;SDS011;53438;48.898;2.308;2023-05-14T17:15:29;7.40;;;5.20;;
66581;SDS011;53438;48.898;2.308;2023-05-14T17:17:55;7.97;;;5.00;;
66581;SDS011;53438;48.898;2.308;2023-05-14T17:20:20;11.85;;;4.35;;
66581;SDS011;53438;48.898;2.308;2023-05-14T17:22:46;8.40;;;4.87;;